createdAt,value
2019-01-23T00:00:54.218Z,99843.05
2019-01-23T00:03:24.033Z,99842.45
2019-01-23T00:05:53.807Z,99839.28
2019-01-23T00:08:23.486Z,99839.81
2019-01-23T00:10:53.278Z,99835.41
2019-01-23T00:13:23.068Z,99831.20
2019-01-23T00:15:52.771Z,99829.62
2019-01-23T00:18:22.513Z,99826.59
2019-01-23T00:20:52.306Z,99826.77
2019-01-23T00:23:22.145Z,99827.57
2019-01-23T00:25:51.915Z,99823.17
2019-01-23T00:28:21.751Z,99813.78
2019-01-23T00:30:51.566Z,99817.34
2019-01-23T00:33:21.235Z,99811.97
2019-01-23T00:35:51.007Z,99798.09
2019-01-23T00:38:20.782Z,99797.28
2019-01-23T00:40:50.555Z,99789.56
2019-01-23T00:43:20.262Z,99793.92
2019-01-23T00:45:49.939Z,99786.55
2019-01-23T00:48:19.729Z,99780.91
2019-01-23T00:50:49.464Z,99773.89
2019-01-23T00:53:19.150Z,99778.32
2019-01-23T00:55:48.952Z,99781.41
2019-01-23T00:58:18.703Z,99779.06
2019-01-23T01:00:48.541Z,99773.56
2019-01-23T01:03:18.257Z,99773.14
2019-01-23T01:05:48.148Z,99771.54
2019-01-23T01:08:17.892Z,99763.93
2019-01-23T01:10:47.791Z,99771.22
2019-01-23T01:13:17.573Z,99763.33
2019-01-23T01:15:47.250Z,99770.11
2019-01-23T01:18:17.039Z,99760.39
2019-01-23T01:20:46.757Z,99757.93
2019-01-23T01:23:16.524Z,99759.08
2019-01-23T01:25:46.216Z,99761.22
2019-01-23T01:28:16.003Z,99760.17
2019-01-23T01:30:45.762Z,99758.92
2019-01-23T01:33:15.459Z,99763.34
2019-01-23T01:35:45.218Z,99762.52
2019-01-23T01:38:15.080Z,99764.73
2019-01-23T01:40:44.851Z,99759.50
2019-01-23T01:43:14.536Z,99761.77
2019-01-23T01:45:44.408Z,99758.94
2019-01-23T01:48:14.143Z,99758.17
2019-01-23T01:50:44.054Z,99759.23
2019-01-23T01:53:13.726Z,99751.66
2019-01-23T01:55:43.571Z,99750.03
2019-01-23T01:58:13.272Z,99743.30
2019-01-23T02:00:43.036Z,99747.17
2019-01-23T02:03:15.499Z,99741.16
2019-01-23T02:05:44.281Z,99742.31
2019-01-23T02:08:13.951Z,99741.00
2019-01-23T02:10:43.623Z,99741.00
2019-01-23T02:13:13.416Z,99732.09
2019-01-23T02:15:43.179Z,99732.59
2019-01-23T02:18:13.018Z,99735.27
2019-01-23T02:20:42.727Z,99733.09
2019-01-23T02:23:12.448Z,99730.97
2019-01-23T02:25:42.257Z,99727.55
2019-01-23T02:28:12.043Z,99727.63
2019-01-23T02:30:41.885Z,99721.56
2019-01-23T02:33:11.593Z,99726.87
2019-01-23T02:35:41.261Z,99721.56
2019-01-23T02:38:10.975Z,99721.94
2019-01-23T02:40:40.744Z,99713.09
2019-01-23T02:43:10.405Z,99712.05
2019-01-23T02:45:40.128Z,99715.47
2019-01-23T02:48:09.874Z,99709.36
2019-01-23T02:50:39.613Z,99711.47
2019-01-23T02:53:09.399Z,99708.69
2019-01-23T02:55:39.364Z,99708.92
2019-01-23T02:58:09.289Z,99702.84
2019-01-23T03:00:39.008Z,99705.52
2019-01-23T03:03:08.908Z,99699.52
2019-01-23T03:05:38.661Z,99692.16
2019-01-23T03:08:08.597Z,99689.39
2019-01-23T03:10:38.412Z,99686.53
2019-01-23T03:13:08.178Z,99690.39
2019-01-23T03:15:37.881Z,99691.23
2019-01-23T03:18:07.788Z,99693.86
2019-01-23T03:20:37.545Z,99681.03
2019-01-23T03:23:07.276Z,99692.18
2019-01-23T03:25:37.113Z,99685.71
2019-01-23T03:28:06.906Z,99681.72
2019-01-23T03:30:36.661Z,99680.14
2019-01-23T03:33:06.423Z,99676.28
2019-01-23T03:35:36.202Z,99664.58
2019-01-23T03:38:06.224Z,99672.43
2019-01-23T03:40:35.989Z,99666.90
2019-01-23T03:43:06.091Z,99663.76
2019-01-23T03:45:35.819Z,99660.30
2019-01-23T03:48:05.583Z,99665.27
2019-01-23T03:50:35.278Z,99665.75
2019-01-23T03:53:05.363Z,99661.52
2019-01-23T03:55:35.500Z,99658.42
2019-01-23T03:58:05.482Z,99661.47
2019-01-23T04:00:35.234Z,99657.48
2019-01-23T04:03:05.685Z,99662.22
2019-01-23T04:05:35.456Z,99653.75
2019-01-23T04:08:05.523Z,99649.83
2019-01-23T04:10:35.200Z,99657.72
2019-01-23T04:13:05.031Z,99646.39
2019-01-23T04:15:34.768Z,99643.02
2019-01-23T04:18:04.519Z,99643.28
2019-01-23T04:20:34.299Z,99643.09
2019-01-23T04:23:04.076Z,99645.14
2019-01-23T04:25:33.735Z,99644.97
2019-01-23T04:28:03.482Z,99635.56
2019-01-23T04:30:33.193Z,99632.68
2019-01-23T04:33:02.844Z,99631.11
2019-01-23T04:35:32.579Z,99630.81
2019-01-23T04:38:02.296Z,99624.52
2019-01-23T04:40:32.071Z,99632.88
2019-01-23T04:43:01.748Z,99631.64
2019-01-23T04:45:31.454Z,99625.88
2019-01-23T04:48:01.097Z,99623.47
2019-01-23T04:50:31.969Z,99621.77
2019-01-23T04:53:06.309Z,99623.13
2019-01-23T04:55:37.474Z,99623.03
2019-01-23T04:58:07.288Z,99622.47
2019-01-23T05:00:37.036Z,99618.28
2019-01-23T05:03:06.829Z,99620.09
2019-01-23T05:05:36.655Z,99611.68
2019-01-23T05:08:06.370Z,99615.61
2019-01-23T05:10:36.103Z,99613.63
2019-01-23T05:13:06.021Z,99608.62
2019-01-23T05:15:35.798Z,99607.55
2019-01-23T05:18:05.581Z,99611.79
2019-01-23T05:20:35.285Z,99610.76
2019-01-23T05:23:05.307Z,99609.50
2019-01-23T05:25:35.146Z,99614.47
2019-01-23T05:28:05.183Z,99613.56
2019-01-23T05:30:35.011Z,99621.66
2019-01-23T05:33:05.858Z,99613.61
2019-01-23T05:35:35.606Z,99618.55
2019-01-23T05:38:05.686Z,99619.47
2019-01-23T05:40:35.492Z,99617.03
2019-01-23T05:43:05.407Z,99619.34
2019-01-23T05:45:35.190Z,99619.40
2019-01-23T05:48:05.386Z,99624.08
2019-01-23T05:50:35.460Z,99619.06
2019-01-23T05:53:05.318Z,99622.50
2019-01-23T05:55:34.978Z,99621.69
2019-01-23T05:58:04.892Z,99621.63
2019-01-23T06:00:34.654Z,99619.98
2019-01-23T06:03:04.433Z,99621.47
2019-01-23T06:05:34.386Z,99622.05
2019-01-23T06:08:04.077Z,99624.34
2019-01-23T06:10:33.831Z,99628.20
2019-01-23T06:13:03.547Z,99627.30
2019-01-23T06:15:33.338Z,99623.08
2019-01-23T06:18:03.092Z,99627.16
2019-01-23T06:20:32.822Z,99624.80
2019-01-23T06:23:02.614Z,99629.20
2019-01-23T06:25:32.375Z,99630.98
2019-01-23T06:28:02.103Z,99625.52
2019-01-23T06:30:31.791Z,99624.31
2019-01-23T06:33:01.508Z,99628.18
2019-01-23T06:35:31.270Z,99624.55
2019-01-23T06:38:01.008Z,99624.55
2019-01-23T06:40:31.079Z,99628.74
2019-01-23T06:43:00.854Z,99629.04
2019-01-23T06:45:30.568Z,99633.73
2019-01-23T06:48:00.298Z,99634.98
2019-01-23T06:50:30.146Z,99635.52
2019-01-23T06:52:59.814Z,99635.81
2019-01-23T06:55:29.587Z,99634.98
2019-01-23T06:57:59.234Z,99638.84
2019-01-23T07:00:29.154Z,99639.96
2019-01-23T07:02:59.060Z,99639.38
2019-01-23T07:05:28.845Z,99636.14
2019-01-23T07:07:58.552Z,99637.85
2019-01-23T07:10:28.589Z,99644.63
2019-01-23T07:12:58.300Z,99645.38
2019-01-23T07:15:28.018Z,99647.44
2019-01-23T07:17:57.727Z,99646.89
2019-01-23T07:20:28.023Z,99659.81
2019-01-23T07:22:57.798Z,99658.21
2019-01-23T07:25:27.686Z,99659.09
2019-01-23T07:27:57.549Z,99658.08
2019-01-23T07:30:33.988Z,99664.16
2019-01-23T07:33:03.807Z,99666.89
2019-01-23T07:35:33.535Z,99664.62
2019-01-23T07:38:03.349Z,99665.16
2019-01-23T07:40:33.270Z,99663.98
2019-01-23T07:43:03.085Z,99672.76
2019-01-23T07:45:32.903Z,99671.64
2019-01-23T07:48:02.723Z,99677.43
2019-01-23T07:50:32.474Z,99676.39
2019-01-23T07:53:02.253Z,99679.25
2019-01-23T07:55:32.005Z,99676.37
2019-01-23T07:58:01.675Z,99682.85
2019-01-23T08:00:31.803Z,99682.92
2019-01-23T08:03:01.715Z,99682.98
2019-01-23T08:05:32.561Z,99679.84
2019-01-23T08:08:02.336Z,99684.50
2019-01-23T08:10:32.126Z,99681.02
2019-01-23T08:13:02.129Z,99678.14
2019-01-23T08:15:34.510Z,99673.73
2019-01-23T08:18:04.529Z,99672.47
2019-01-23T08:20:34.311Z,99677.79
2019-01-23T08:23:04.234Z,99679.09
2019-01-23T08:25:34.377Z,99674.69
2019-01-23T08:28:04.663Z,99675.24
2019-01-23T08:30:38.641Z,99683.89
2019-01-23T08:33:06.258Z,99689.00
2019-01-23T08:35:36.212Z,99684.34
2019-01-23T08:38:06.221Z,99690.44
2019-01-23T08:40:35.975Z,99683.16
2019-01-23T08:43:05.987Z,99680.91
2019-01-23T08:45:36.248Z,99685.03
2019-01-23T08:48:06.038Z,99689.70
2019-01-23T08:50:39.721Z,99691.06
2019-01-23T08:53:09.533Z,99691.94
2019-01-23T08:55:39.278Z,99687.52
2019-01-23T08:58:09.231Z,99689.64
2019-01-23T09:00:45.576Z,99692.40
2019-01-23T09:03:10.458Z,99694.22
2019-01-23T09:05:40.176Z,99690.89
2019-01-23T09:08:09.959Z,99693.82
2019-01-23T09:10:39.774Z,99695.49
2019-01-23T09:13:09.553Z,99695.33
2019-01-23T09:15:39.277Z,99694.28
2019-01-23T09:18:09.109Z,99701.59
2019-01-23T09:20:38.784Z,99706.31
2019-01-23T09:23:08.528Z,99712.13
2019-01-23T09:25:38.229Z,99707.39
2019-01-23T09:28:07.879Z,99711.87
2019-01-23T09:30:42.484Z,99715.59
2019-01-23T09:33:43.820Z,99719.28
2019-01-23T09:37:00.405Z,99720.39
2019-01-23T09:39:40.434Z,99725.33
2019-01-23T09:42:42.272Z,99725.02
2019-01-23T09:45:39.264Z,99712.98
2019-01-23T09:48:40.620Z,99718.69
2019-01-23T09:51:48.212Z,99724.73
2019-01-23T09:54:17.932Z,99725.94
2019-01-23T09:56:47.910Z,99727.05
2019-01-23T09:59:17.572Z,99729.27
2019-01-23T10:01:47.336Z,99730.82
2019-01-23T10:04:17.006Z,99739.19
2019-01-23T10:06:46.703Z,99742.37
2019-01-23T10:09:16.487Z,99747.00
2019-01-23T10:11:46.207Z,99750.98
2019-01-23T10:14:15.916Z,99749.42
2019-01-23T10:16:45.591Z,99751.84
2019-01-23T10:19:15.285Z,99750.48
2019-01-23T10:21:45.105Z,99748.87
2019-01-23T10:24:14.814Z,99749.79
2019-01-23T10:26:44.571Z,99750.99
2019-01-23T10:29:14.342Z,99749.21
2019-01-23T10:31:44.159Z,99751.79
2019-01-23T10:34:13.861Z,99757.80
2019-01-23T10:36:43.904Z,99761.93
2019-01-23T10:39:13.615Z,99757.75
2019-01-23T10:41:43.365Z,99763.85
2019-01-23T10:44:13.345Z,99753.09
2019-01-23T10:46:43.138Z,99755.31
2019-01-23T10:49:12.947Z,99761.20
2019-01-23T10:51:42.755Z,99756.03
2019-01-23T10:54:12.604Z,99759.63
2019-01-23T10:56:42.386Z,99761.23
2019-01-23T10:59:12.165Z,99763.02
2019-01-23T11:01:42.004Z,99763.02
2019-01-23T11:04:12.080Z,99764.07
2019-01-23T11:06:41.876Z,99758.48
2019-01-23T11:09:11.850Z,99759.59
2019-01-23T11:11:41.632Z,99759.70
2019-01-23T11:14:11.295Z,99766.05
2019-01-23T11:16:41.096Z,99759.46
2019-01-23T11:19:10.951Z,99757.81
2019-01-23T11:21:40.687Z,99754.94
2019-01-23T11:24:10.445Z,99759.03
2019-01-23T11:26:40.213Z,99759.12
2019-01-23T11:29:09.918Z,99760.14
2019-01-23T11:31:39.724Z,99761.87
2019-01-23T11:34:09.396Z,99756.41
2019-01-23T11:36:39.277Z,99761.53
2019-01-23T11:39:10.160Z,99762.72
2019-01-23T11:41:39.972Z,99768.77
2019-01-23T11:44:10.993Z,99767.03
2019-01-23T11:46:41.143Z,99762.38
2019-01-23T11:49:11.201Z,99759.53
2019-01-23T11:51:41.043Z,99769.09
2019-01-23T11:54:10.740Z,99769.86
2019-01-23T11:56:40.510Z,99768.51
2019-01-23T11:59:10.265Z,99767.59
2019-01-23T12:01:40.199Z,99769.45
2019-01-23T12:04:10.139Z,99767.12
2019-01-23T12:06:39.887Z,99770.88
2019-01-23T12:09:10.471Z,99769.44
2019-01-23T12:11:40.240Z,99776.66
2019-01-23T12:14:09.993Z,99777.72
2019-01-23T12:16:39.801Z,99774.48
2019-01-23T12:19:09.542Z,99779.73
2019-01-23T12:21:39.218Z,99781.91
2019-01-23T12:24:09.029Z,99783.02
2019-01-23T12:26:38.851Z,99782.47
2019-01-23T12:29:08.889Z,99782.47
2019-01-23T12:31:38.608Z,99786.86
2019-01-23T12:34:08.468Z,99787.86
2019-01-23T12:36:38.222Z,99781.02
2019-01-23T12:39:09.900Z,99786.84
2019-01-23T12:41:39.717Z,99788.77
2019-01-23T12:44:09.672Z,99786.05
2019-01-23T12:46:39.377Z,99787.69
2019-01-23T12:49:09.042Z,99784.28
2019-01-23T12:51:38.926Z,99792.25
2019-01-23T12:54:08.645Z,99793.96
2019-01-23T12:56:38.433Z,99796.84
2019-01-23T12:59:08.283Z,99792.39
2019-01-23T13:01:41.944Z,99798.20
2019-01-23T13:04:09.575Z,99799.20
2019-01-23T13:06:39.285Z,99796.78
2019-01-23T13:09:10.184Z,99794.83
2019-01-23T13:11:40.137Z,99797.13
2019-01-23T13:14:09.964Z,99806.42
2019-01-23T13:16:39.680Z,99805.86
2019-01-23T13:19:09.449Z,99803.24
2019-01-23T13:21:39.118Z,99803.41
2019-01-23T13:24:09.062Z,99806.22
2019-01-23T13:26:38.812Z,99809.44
2019-01-23T13:29:08.651Z,99805.86
2019-01-23T13:31:38.404Z,99802.69
2019-01-23T13:34:08.186Z,99808.59
2019-01-23T13:36:37.868Z,99807.73
2019-01-23T13:39:09.621Z,99802.47
2019-01-23T13:41:39.354Z,99806.80
2019-01-23T13:44:09.113Z,99803.69
2019-01-23T13:46:38.871Z,99806.05
2019-01-23T13:49:08.561Z,99804.13
2019-01-23T13:51:38.370Z,99803.56
2019-01-23T13:54:08.128Z,99809.49
2019-01-23T13:56:37.775Z,99804.99
2019-01-23T13:59:07.545Z,99810.75
2019-01-23T14:01:37.210Z,99804.62
2019-01-23T14:04:07.147Z,99811.05
2019-01-23T14:06:36.880Z,99814.81
2019-01-23T14:09:08.580Z,99817.19
2019-01-23T14:11:38.284Z,99822.30
2019-01-23T14:14:08.120Z,99821.04
2019-01-23T14:16:37.865Z,99829.23
2019-01-23T14:19:07.775Z,99832.41
2019-01-23T14:21:37.473Z,99835.83
2019-01-23T14:24:07.350Z,99841.16
2019-01-23T14:26:37.138Z,99847.63
2019-01-23T14:29:06.900Z,99852.38
2019-01-23T14:31:36.735Z,99849.39
2019-01-23T14:34:06.620Z,99850.48
2019-01-23T14:36:36.385Z,99858.84
2019-01-23T14:39:08.303Z,99859.84
2019-01-23T14:41:37.985Z,99864.42
2019-01-23T14:44:07.695Z,99867.91
2019-01-23T14:46:37.353Z,99865.70
2019-01-23T14:49:07.036Z,99864.09
2019-01-23T14:51:36.809Z,99871.52
2019-01-23T14:54:06.716Z,99872.16
2019-01-23T14:56:36.378Z,99873.59
2019-01-23T14:59:06.257Z,99873.55
2019-01-23T15:01:35.920Z,99880.70
2019-01-23T15:04:05.803Z,99884.58
2019-01-23T15:06:35.447Z,99886.48
2019-01-23T15:09:07.832Z,99887.80
2019-01-23T15:11:37.496Z,99904.77
2019-01-23T15:14:07.770Z,99897.39
2019-01-23T15:16:37.520Z,99900.91
2019-01-23T15:19:07.375Z,99903.48
2019-01-23T15:21:37.030Z,99906.92
2019-01-23T15:24:06.782Z,99910.00
2019-01-23T15:26:36.423Z,99910.00
2019-01-23T15:29:06.110Z,99911.52
2019-01-23T15:31:36.173Z,99913.95
2019-01-23T15:34:06.206Z,99925.92
2019-01-23T15:36:35.933Z,99931.38
2019-01-23T15:39:08.327Z,99942.78
2019-01-23T15:41:38.030Z,99937.58
2019-01-23T15:44:07.757Z,99944.64
2019-01-23T15:46:37.514Z,99944.66
2019-01-23T15:49:07.245Z,99948.00
2019-01-23T15:51:36.927Z,99950.36
2019-01-23T15:54:06.755Z,99957.22
2019-01-23T15:56:36.441Z,99957.66
2019-01-23T15:59:06.097Z,99958.64
2019-01-23T16:01:36.001Z,99958.05
2019-01-23T16:04:05.774Z,99961.64
2019-01-23T16:06:35.476Z,99962.70
2019-01-23T16:09:06.538Z,99971.73
2019-01-23T16:11:36.663Z,99965.89
2019-01-23T16:14:06.471Z,99976.20
2019-01-23T16:16:36.192Z,99982.70
2019-01-23T16:19:06.137Z,99985.45
2019-01-23T16:21:35.802Z,99991.11
2019-01-23T16:24:07.428Z,99998.84
2019-01-23T16:26:37.076Z,99996.85
2019-01-23T16:29:06.769Z,100005.42
2019-01-23T16:31:36.519Z,100004.84
2019-01-23T16:34:06.526Z,100002.33
2019-01-23T16:36:36.325Z,100005.48
2019-01-23T16:39:08.459Z,100014.41
2019-01-23T16:41:38.234Z,100015.71
2019-01-23T16:44:08.144Z,100021.52
2019-01-23T16:46:37.899Z,100022.86
2019-01-23T16:49:07.852Z,100035.75
2019-01-23T16:51:37.667Z,100038.88
2019-01-23T16:54:07.390Z,100044.05
2019-01-23T16:56:37.388Z,100047.14
2019-01-23T16:59:07.341Z,100050.95
2019-01-23T17:01:37.242Z,100055.85
2019-01-23T17:04:07.095Z,100063.47
2019-01-23T17:06:37.003Z,100063.20
2019-01-23T17:09:08.780Z,100076.48
2019-01-23T17:11:38.558Z,100068.34
2019-01-23T17:14:08.526Z,100074.41
2019-01-23T17:16:38.333Z,100082.13
2019-01-23T17:19:08.072Z,100079.41
2019-01-23T17:21:37.762Z,100090.66
2019-01-23T17:24:07.663Z,100096.12
2019-01-23T17:26:37.405Z,100088.16
2019-01-23T17:29:07.105Z,100091.17
2019-01-23T17:31:36.827Z,100095.63
2019-01-23T17:34:06.823Z,100101.70
2019-01-23T17:36:36.617Z,100102.09
2019-01-23T17:39:10.202Z,100108.81
2019-01-23T17:41:40.007Z,100104.89
2019-01-23T17:44:09.966Z,100102.54
2019-01-23T17:46:40.351Z,100112.46
2019-01-23T17:49:10.166Z,100117.23
2019-01-23T17:51:39.892Z,100114.31
2019-01-23T17:54:09.757Z,100122.28
2019-01-23T17:56:39.532Z,100129.33
2019-01-23T17:59:09.445Z,100123.82
2019-01-23T18:01:39.225Z,100134.16
2019-01-23T18:04:09.008Z,100137.36
2019-01-23T18:06:38.792Z,100140.12
2019-01-23T18:09:11.346Z,100144.28
2019-01-23T18:11:41.110Z,100143.82
2019-01-23T18:14:10.955Z,100141.23
2019-01-23T18:16:40.624Z,100145.89
2019-01-23T18:19:10.360Z,100164.98
2019-01-23T18:21:40.251Z,100161.81
2019-01-23T18:24:09.969Z,100168.17
2019-01-23T18:26:39.741Z,100168.52
2019-01-23T18:29:09.569Z,100165.78
2019-01-23T18:31:39.288Z,100167.47
2019-01-23T18:34:39.029Z,100170.55
2019-01-23T18:37:19.081Z,100172.44
2019-01-23T18:40:26.938Z,100177.33
2019-01-23T18:43:21.882Z,100179.36
2019-01-23T18:46:01.678Z,100188.63
2019-01-23T18:49:03.933Z,100186.02
2019-01-23T18:51:34.030Z,100188.36
2019-01-23T18:54:03.785Z,100188.36
2019-01-23T18:56:33.747Z,100192.25
2019-01-23T18:59:03.638Z,100193.67
2019-01-23T19:01:33.290Z,100197.56
2019-01-23T19:04:03.138Z,100200.29
2019-01-23T19:06:32.807Z,100205.59
2019-01-23T19:09:02.482Z,100198.32
2019-01-23T19:11:32.342Z,100202.36
2019-01-23T19:14:02.137Z,100202.79
2019-01-23T19:16:31.890Z,100205.13
2019-01-23T19:19:01.698Z,100204.80
2019-01-23T19:21:31.466Z,100203.25
2019-01-23T19:24:01.196Z,100206.25
2019-01-23T19:26:30.976Z,100204.55
2019-01-23T19:29:00.738Z,100207.43
2019-01-23T19:31:30.462Z,100202.13
2019-01-23T19:34:00.235Z,100204.39
2019-01-23T19:36:30.287Z,100210.13
2019-01-23T19:39:00.180Z,100206.78
2019-01-23T19:41:29.909Z,100206.90
2019-01-23T19:43:59.633Z,100214.66
2019-01-23T19:46:29.283Z,100211.11
2019-01-23T19:48:59.039Z,100217.47
2019-01-23T19:51:28.926Z,100219.16
2019-01-23T19:53:58.819Z,100219.20
2019-01-23T19:56:28.917Z,100222.63
2019-01-23T19:58:58.629Z,100227.70
2019-01-23T20:01:28.419Z,100225.36
2019-01-23T20:03:58.116Z,100230.49
2019-01-23T20:06:28.082Z,100239.47
2019-01-23T20:08:57.947Z,100239.95
2019-01-23T20:11:27.711Z,100245.76
2019-01-23T20:13:57.371Z,100246.23
2019-01-23T20:16:27.294Z,100246.50
2019-01-23T20:18:57.087Z,100247.10
2019-01-23T20:21:26.829Z,100244.00
2019-01-23T20:23:56.621Z,100243.23
2019-01-23T20:26:26.377Z,100247.88
2019-01-23T20:28:56.183Z,100250.59
2019-01-23T20:31:26.047Z,100252.12
2019-01-23T20:33:55.991Z,100256.90
2019-01-23T20:36:25.653Z,100261.54
2019-01-23T20:38:55.385Z,100260.08
2019-01-23T20:41:25.191Z,100263.06
2019-01-23T20:43:54.884Z,100267.48
2019-01-23T20:46:24.708Z,100270.59
2019-01-23T20:48:54.421Z,100268.47
2019-01-23T20:51:24.068Z,100274.37
2019-01-23T20:53:53.815Z,100280.01
2019-01-23T20:56:23.616Z,100286.98
2019-01-23T20:58:53.655Z,100287.20
2019-01-23T21:01:23.452Z,100288.97
2019-01-23T21:03:53.268Z,100285.09
2019-01-23T21:06:23.204Z,100295.53
2019-01-23T21:08:52.931Z,100294.86
2019-01-23T21:11:22.713Z,100288.47
2019-01-23T21:13:52.381Z,100290.36
2019-01-23T21:16:22.202Z,100294.82
2019-01-23T21:18:52.048Z,100292.94
2019-01-23T21:21:21.728Z,100299.20
2019-01-23T21:23:51.476Z,100294.25
2019-01-23T21:26:21.270Z,100299.56
2019-01-23T21:28:50.993Z,100305.65
2019-01-23T21:31:20.744Z,100313.76
2019-01-23T21:33:50.497Z,100312.81
2019-01-23T21:36:20.227Z,100310.73
2019-01-23T21:38:49.916Z,100314.35
2019-01-23T21:41:19.663Z,100317.72
2019-01-23T21:43:49.365Z,100319.71
2019-01-23T21:46:19.119Z,100319.13
2019-01-23T21:48:48.891Z,100319.88
2019-01-23T21:51:18.627Z,100319.08
2019-01-23T21:53:48.325Z,100323.36
2019-01-23T21:56:18.059Z,100329.40
2019-01-23T21:58:47.873Z,100333.95
2019-01-23T22:01:17.556Z,100338.91
2019-01-23T22:03:49.463Z,100340.80
2019-01-23T22:06:18.773Z,100340.85
2019-01-23T22:08:48.440Z,100340.94
2019-01-23T22:11:18.309Z,100351.84
2019-01-23T22:13:48.032Z,100348.95
2019-01-23T22:16:17.754Z,100345.66
2019-01-23T22:18:47.550Z,100349.50
2019-01-23T22:21:17.210Z,100346.61
2019-01-23T22:23:46.992Z,100353.42
2019-01-23T22:26:16.653Z,100355.31
2019-01-23T22:28:46.367Z,100362.13
2019-01-23T22:31:16.174Z,100362.87
2019-01-23T22:33:45.880Z,100368.54
2019-01-23T22:36:15.619Z,100368.69
2019-01-23T22:38:45.446Z,100370.72
2019-01-23T22:41:15.132Z,100379.43
2019-01-23T22:43:44.797Z,100380.81
2019-01-23T22:46:14.645Z,100375.78
2019-01-23T22:48:44.325Z,100388.70
2019-01-23T22:51:14.102Z,100388.06
2019-01-23T22:53:43.897Z,100386.83
2019-01-23T22:56:13.618Z,100390.69
2019-01-23T22:58:43.269Z,100392.19
2019-01-23T23:01:17.562Z,100393.56
2019-01-23T23:03:47.608Z,100395.33
2019-01-23T23:06:17.362Z,100408.03
2019-01-23T23:08:47.146Z,100406.87
2019-01-23T23:11:16.840Z,100404.18
2019-01-23T23:13:46.600Z,100410.20
2019-01-23T23:16:16.328Z,100405.80
2019-01-23T23:18:46.039Z,100415.20
2019-01-23T23:21:15.907Z,100421.98
2019-01-23T23:23:45.758Z,100427.72
2019-01-23T23:26:15.518Z,100432.27
2019-01-23T23:28:45.268Z,100435.75
2019-01-23T23:31:14.942Z,100434.90
2019-01-23T23:33:44.630Z,100432.12
2019-01-23T23:36:14.422Z,100436.99
2019-01-23T23:38:44.202Z,100443.28
2019-01-23T23:41:13.995Z,100452.17
2019-01-23T23:43:43.791Z,100451.89
2019-01-23T23:46:13.470Z,100456.00
2019-01-23T23:48:43.289Z,100451.42
2019-01-23T23:51:13.045Z,100455.80
2019-01-23T23:53:42.706Z,100457.14
2019-01-23T23:56:12.387Z,100457.61
2019-01-23T23:58:42.113Z,100468.65
